createdAt,value
2022-10-09T00:01:05.631Z,9.57
2022-10-09T00:02:13.218Z,9.58
2022-10-09T00:03:17.225Z,9.57
2022-10-09T00:04:18.900Z,9.56
2022-10-09T00:05:23.607Z,9.57
2022-10-09T00:06:30.414Z,9.57
2022-10-09T00:07:32.098Z,9.56
2022-10-09T00:08:35.845Z,9.59
2022-10-09T00:09:37.525Z,9.60
2022-10-09T00:10:43.118Z,9.61
2022-10-09T00:11:44.835Z,9.61
2022-10-09T00:12:46.954Z,9.61
2022-10-09T00:13:49.837Z,9.61
2022-10-09T00:14:51.523Z,9.60
2022-10-09T00:15:53.247Z,9.60
2022-10-09T00:16:55.300Z,9.59
2022-10-09T00:17:56.958Z,9.56
2022-10-09T00:18:58.695Z,9.55
2022-10-09T00:20:00.325Z,9.52
2022-10-09T00:21:02.907Z,9.50
2022-10-09T00:22:04.784Z,9.46
2022-10-09T00:23:07.132Z,9.43
2022-10-09T00:24:09.261Z,9.40
2022-10-09T00:25:10.956Z,9.38
2022-10-09T00:26:12.638Z,9.36
2022-10-09T00:27:14.427Z,9.35
2022-10-09T00:28:16.099Z,9.33
2022-10-09T00:29:17.742Z,9.30
2022-10-09T00:30:19.359Z,9.27
2022-10-09T00:31:21.870Z,9.25
2022-10-09T00:32:23.786Z,9.23
2022-10-09T00:33:25.459Z,9.21
2022-10-09T00:34:27.244Z,9.18
2022-10-09T00:35:28.971Z,9.16
2022-10-09T00:36:31.130Z,9.13
2022-10-09T00:37:32.846Z,9.10
2022-10-09T00:38:35.133Z,9.06
2022-10-09T00:39:36.776Z,9.02
2022-10-09T00:40:39.419Z,8.99
2022-10-09T00:41:41.169Z,8.96
2022-10-09T00:42:45.585Z,8.94
2022-10-09T00:43:51.357Z,8.92
2022-10-09T00:45:00.230Z,8.90
2022-10-09T00:46:02.691Z,8.89
2022-10-09T00:47:04.587Z,8.87
2022-10-09T00:48:10.570Z,8.86
2022-10-09T00:49:25.513Z,8.83
2022-10-09T00:50:40.328Z,8.81
2022-10-09T00:51:46.024Z,8.78
2022-10-09T00:52:54.230Z,8.76
2022-10-09T00:53:56.906Z,8.73
2022-10-09T00:55:02.625Z,8.71
2022-10-09T00:56:04.691Z,8.69
2022-10-09T00:57:08.084Z,8.66
2022-10-09T00:58:12.975Z,8.63
2022-10-09T00:59:16.555Z,8.60
2022-10-09T01:00:18.733Z,8.60
2022-10-09T01:01:20.467Z,8.57
2022-10-09T01:02:22.244Z,8.57
2022-10-09T01:03:24.066Z,8.56
2022-10-09T01:04:25.758Z,8.56
2022-10-09T01:05:58.433Z,8.55
2022-10-09T01:07:38.705Z,8.54
2022-10-09T01:09:05.143Z,8.53
2022-10-09T01:10:16.598Z,8.52
2022-10-09T01:11:35.487Z,8.54
2022-10-09T01:12:45.934Z,8.53
2022-10-09T01:14:01.522Z,8.54
2022-10-09T01:15:16.305Z,8.53
2022-10-09T01:16:30.430Z,8.54
2022-10-09T01:17:44.048Z,8.55
2022-10-09T01:18:53.775Z,8.55
2022-10-09T01:20:26.455Z,8.56
2022-10-09T01:21:40.866Z,8.57
2022-10-09T01:23:03.538Z,8.58
2022-10-09T01:24:44.607Z,8.59
2022-10-09T01:25:46.106Z,8.58
2022-10-09T01:26:55.518Z,8.57
2022-10-09T01:27:59.143Z,8.54
2022-10-09T01:29:07.438Z,8.54
2022-10-09T01:30:12.564Z,8.52
2022-10-09T01:31:17.028Z,8.51
2022-10-09T01:32:25.754Z,8.51
2022-10-09T01:33:31.411Z,8.50
2022-10-09T01:34:34.048Z,8.49
2022-10-09T01:35:36.597Z,8.49
2022-10-09T01:36:41.152Z,8.51
2022-10-09T01:37:46.389Z,8.51
2022-10-09T01:38:48.842Z,8.52
2022-10-09T01:39:52.144Z,8.51
2022-10-09T01:40:53.959Z,8.51
2022-10-09T01:41:57.714Z,8.51
2022-10-09T01:42:59.544Z,8.52
2022-10-09T01:44:01.670Z,8.53
2022-10-09T01:45:03.857Z,8.54
2022-10-09T01:46:23.762Z,8.55
2022-10-09T01:47:26.407Z,8.57
2022-10-09T01:48:28.845Z,8.58
2022-10-09T01:49:49.040Z,8.59
2022-10-09T01:51:04.578Z,8.60
2022-10-09T01:52:29.898Z,8.61
2022-10-09T01:53:32.559Z,8.61
2022-10-09T01:54:58.771Z,8.61
2022-10-09T01:56:09.254Z,8.62
2022-10-09T01:57:18.616Z,8.62
2022-10-09T01:58:41.851Z,8.62
2022-10-09T01:59:47.241Z,8.64
2022-10-09T02:01:07.160Z,8.65
2022-10-09T02:02:10.691Z,8.67
2022-10-09T02:03:16.650Z,8.69
2022-10-09T02:04:20.263Z,8.70
2022-10-09T02:05:32.851Z,8.70
2022-10-09T02:06:38.609Z,8.71
2022-10-09T02:07:40.703Z,8.72
2022-10-09T02:08:46.786Z,8.72
2022-10-09T02:09:49.421Z,8.73
2022-10-09T02:10:56.554Z,8.74
2022-10-09T02:12:06.640Z,8.76
2022-10-09T02:13:08.631Z,8.75
2022-10-09T02:14:10.501Z,8.75
2022-10-09T02:15:13.366Z,8.74
2022-10-09T02:16:25.388Z,8.74
2022-10-09T02:17:33.575Z,8.75
2022-10-09T02:18:43.487Z,8.75
2022-10-09T02:19:55.209Z,8.73
2022-10-09T02:21:08.818Z,8.76
2022-10-09T02:22:18.947Z,8.76
2022-10-09T02:23:24.409Z,8.78
2022-10-09T02:24:27.946Z,8.80
2022-10-09T02:25:29.989Z,8.81
2022-10-09T02:26:32.781Z,8.81
2022-10-09T02:27:36.141Z,8.80
2022-10-09T02:28:42.560Z,8.79
2022-10-09T02:29:48.763Z,8.78
2022-10-09T02:31:13.489Z,8.77
2022-10-09T02:32:16.446Z,8.75
2022-10-09T02:33:18.537Z,8.72
2022-10-09T02:34:20.866Z,8.71
2022-10-09T02:35:22.571Z,8.70
2022-10-09T02:36:25.901Z,8.69
2022-10-09T02:37:27.585Z,8.69
2022-10-09T02:38:29.414Z,8.68
2022-10-09T02:39:31.342Z,8.67
2022-10-09T02:40:32.998Z,8.65
2022-10-09T02:41:35.703Z,8.63
2022-10-09T02:42:37.307Z,8.64
2022-10-09T02:43:38.933Z,8.62
2022-10-09T02:44:40.682Z,8.60
2022-10-09T02:45:43.159Z,8.59
2022-10-09T02:46:44.832Z,8.59
2022-10-09T02:47:46.479Z,8.57
2022-10-09T02:48:48.198Z,8.56
2022-10-09T02:49:49.860Z,8.55
2022-10-09T02:50:51.518Z,8.54
2022-10-09T02:51:53.633Z,8.52
2022-10-09T02:52:55.258Z,8.50
2022-10-09T02:53:57.018Z,8.49
2022-10-09T02:54:58.665Z,8.48
2022-10-09T02:56:00.852Z,8.48
2022-10-09T02:57:02.631Z,8.48
2022-10-09T02:58:04.346Z,8.47
2022-10-09T02:59:06.866Z,8.46
2022-10-09T03:00:09.169Z,8.46
2022-10-09T03:01:10.807Z,8.44
2022-10-09T03:02:12.479Z,8.42
2022-10-09T03:03:14.710Z,8.40
2022-10-09T03:04:16.394Z,8.38
2022-10-09T03:05:18.053Z,8.36
2022-10-09T03:06:24.130Z,8.35
2022-10-09T03:07:26.004Z,8.34
2022-10-09T03:08:27.650Z,8.33
2022-10-09T03:09:33.403Z,8.31
2022-10-09T03:10:37.842Z,8.29
2022-10-09T03:11:39.495Z,8.27
2022-10-09T03:12:41.125Z,8.26
2022-10-09T03:13:43.234Z,8.26
2022-10-09T03:14:44.825Z,8.26
2022-10-09T03:15:47.015Z,8.25
2022-10-09T03:16:48.622Z,8.25
2022-10-09T03:17:50.350Z,8.25
2022-10-09T03:18:53.666Z,8.24
2022-10-09T03:19:55.742Z,8.24
2022-10-09T03:20:57.669Z,8.23
2022-10-09T03:21:59.537Z,8.21
2022-10-09T03:23:01.183Z,8.18
2022-10-09T03:24:02.862Z,8.17
2022-10-09T03:25:04.802Z,8.15
2022-10-09T03:26:13.818Z,8.13
2022-10-09T03:27:15.422Z,8.12
2022-10-09T03:28:17.272Z,8.10
2022-10-09T03:29:18.948Z,8.09
2022-10-09T03:30:20.578Z,8.08
2022-10-09T03:32:47.783Z,8.04
2022-10-09T03:33:49.614Z,8.04
2022-10-09T03:34:51.665Z,8.04
2022-10-09T03:35:53.565Z,8.03
2022-10-09T03:36:55.262Z,8.01
2022-10-09T03:37:56.959Z,7.99
2022-10-09T03:38:58.706Z,7.98
2022-10-09T03:40:00.456Z,7.97
2022-10-09T03:41:04.416Z,7.96
2022-10-09T03:42:08.043Z,7.95
2022-10-09T03:43:09.812Z,7.93
2022-10-09T03:44:11.436Z,7.90
2022-10-09T03:45:13.162Z,7.88
2022-10-09T03:46:15.133Z,7.86
2022-10-09T03:47:17.350Z,7.84
2022-10-09T03:48:18.957Z,7.81
2022-10-09T03:49:20.823Z,7.79
2022-10-09T03:50:22.678Z,7.77
2022-10-09T03:51:24.388Z,7.78
2022-10-09T03:52:26.036Z,7.77
2022-10-09T03:53:28.227Z,7.77
2022-10-09T03:54:29.851Z,7.79
2022-10-09T03:55:31.659Z,7.79
2022-10-09T03:56:33.322Z,7.80
2022-10-09T03:57:35.459Z,7.80
2022-10-09T03:58:37.470Z,7.81
2022-10-09T03:59:39.084Z,7.81
2022-10-09T04:00:40.922Z,7.80
2022-10-09T04:01:42.697Z,7.78
2022-10-09T04:02:44.397Z,7.75
2022-10-09T04:03:46.350Z,7.73
2022-10-09T04:04:47.947Z,7.71
2022-10-09T04:05:50.023Z,7.69
2022-10-09T04:06:51.635Z,7.69
2022-10-09T04:07:53.298Z,7.68
2022-10-09T04:08:54.961Z,7.67
2022-10-09T04:09:56.592Z,7.67
2022-10-09T04:10:59.747Z,7.66
2022-10-09T04:12:01.427Z,7.65
2022-10-09T04:13:03.073Z,7.64
2022-10-09T04:14:04.748Z,7.63
2022-10-09T04:15:07.211Z,7.64
2022-10-09T04:16:12.687Z,7.65
2022-10-09T04:17:14.494Z,7.66
2022-10-09T04:18:16.154Z,7.66
2022-10-09T04:19:17.934Z,7.67
2022-10-09T04:20:20.875Z,7.68
2022-10-09T04:21:22.518Z,7.68
2022-10-09T04:22:24.207Z,7.67
2022-10-09T04:23:28.114Z,7.66
2022-10-09T04:24:29.777Z,7.66
2022-10-09T04:25:31.829Z,7.65
2022-10-09T04:26:33.830Z,7.64
2022-10-09T04:27:35.458Z,7.63
2022-10-09T04:28:37.203Z,7.63
2022-10-09T04:29:39.451Z,7.63
2022-10-09T04:30:41.397Z,7.63
2022-10-09T04:31:43.182Z,7.63
2022-10-09T04:32:44.831Z,7.62
2022-10-09T04:33:46.470Z,7.62
2022-10-09T04:34:48.198Z,7.61
2022-10-09T04:35:52.449Z,7.62
2022-10-09T04:36:54.410Z,7.62
2022-10-09T04:37:56.062Z,7.62
2022-10-09T04:38:57.702Z,7.62
2022-10-09T04:39:59.300Z,7.62
2022-10-09T04:41:04.180Z,7.61
2022-10-09T04:42:06.281Z,7.60
2022-10-09T04:43:07.944Z,7.58
2022-10-09T04:44:09.979Z,7.56
2022-10-09T04:45:11.630Z,7.56
2022-10-09T04:46:15.266Z,7.56
2022-10-09T04:47:17.623Z,7.56
2022-10-09T04:48:20.389Z,7.55
2022-10-09T04:49:22.017Z,7.55
2022-10-09T04:50:24.233Z,7.57
2022-10-09T04:51:34.458Z,7.58
2022-10-09T04:52:36.588Z,7.59
2022-10-09T04:53:39.066Z,7.60
2022-10-09T04:54:40.667Z,7.60
2022-10-09T04:55:43.861Z,7.60
2022-10-09T04:56:45.618Z,7.60
2022-10-09T04:57:47.379Z,7.60
2022-10-09T04:58:49.414Z,7.60
2022-10-09T04:59:51.075Z,7.58
2022-10-09T05:00:52.770Z,7.56
2022-10-09T05:01:54.496Z,7.55
2022-10-09T05:02:56.465Z,7.52
2022-10-09T05:03:58.468Z,7.50
2022-10-09T05:05:00.116Z,7.49
2022-10-09T05:06:07.182Z,7.48
2022-10-09T05:07:08.803Z,7.48
2022-10-09T05:08:10.458Z,7.49
2022-10-09T05:09:12.789Z,7.49
2022-10-09T05:10:14.783Z,7.47
2022-10-09T05:11:19.625Z,7.46
2022-10-09T05:12:21.260Z,7.46
2022-10-09T05:13:23.013Z,7.46
2022-10-09T05:14:24.913Z,7.47
2022-10-09T05:15:26.736Z,7.47
2022-10-09T05:16:29.361Z,7.48
2022-10-09T05:17:31.132Z,7.49
2022-10-09T05:18:33.734Z,7.51
2022-10-09T05:19:35.531Z,7.51
2022-10-09T05:20:41.323Z,7.51
2022-10-09T05:21:42.974Z,7.51
2022-10-09T05:22:45.815Z,7.51
2022-10-09T05:23:48.507Z,7.52
2022-10-09T05:24:50.136Z,7.53
2022-10-09T05:25:56.288Z,7.52
2022-10-09T05:26:58.193Z,7.53
2022-10-09T05:28:00.355Z,7.51
2022-10-09T05:29:02.010Z,7.51
2022-10-09T05:30:05.551Z,7.50
2022-10-09T05:31:09.090Z,7.50
2022-10-09T05:32:10.838Z,7.51
2022-10-09T05:33:12.682Z,7.52
2022-10-09T05:34:14.653Z,7.54
2022-10-09T05:35:16.677Z,7.57
2022-10-09T05:36:19.010Z,7.58
2022-10-09T05:37:20.833Z,7.59
2022-10-09T05:38:24.723Z,7.60
2022-10-09T05:39:26.689Z,7.58
2022-10-09T05:40:29.346Z,7.59
2022-10-09T05:41:31.050Z,7.59
2022-10-09T05:42:32.727Z,7.59
2022-10-09T05:43:37.770Z,7.59
2022-10-09T05:44:39.444Z,7.59
2022-10-09T05:45:41.191Z,7.58
2022-10-09T05:46:42.854Z,7.59
2022-10-09T05:47:46.114Z,7.58
2022-10-09T05:49:00.161Z,7.60
2022-10-09T05:50:02.456Z,7.61
2022-10-09T05:51:17.234Z,7.62
2022-10-09T05:52:18.859Z,7.62
2022-10-09T05:53:20.733Z,7.61
2022-10-09T05:54:22.345Z,7.60
2022-10-09T05:55:26.793Z,7.59
2022-10-09T05:56:33.888Z,7.59
2022-10-09T05:57:35.510Z,7.59
2022-10-09T05:58:37.380Z,7.59
2022-10-09T05:59:39.065Z,7.59
2022-10-09T06:00:40.749Z,7.60
2022-10-09T06:01:46.674Z,7.60
2022-10-09T06:02:48.761Z,7.59
2022-10-09T06:03:53.328Z,7.61
2022-10-09T06:04:55.285Z,7.63
2022-10-09T06:06:04.210Z,7.64
2022-10-09T06:07:05.915Z,7.65
2022-10-09T06:08:07.612Z,7.66
2022-10-09T06:09:11.057Z,7.68
2022-10-09T06:10:13.385Z,7.70
2022-10-09T06:11:18.584Z,7.72
2022-10-09T06:12:20.218Z,7.74
2022-10-09T06:13:21.951Z,7.75
2022-10-09T06:14:25.027Z,7.75
2022-10-09T06:15:26.653Z,7.75
2022-10-09T06:16:34.926Z,7.77
2022-10-09T06:17:36.558Z,7.78
2022-10-09T06:18:39.300Z,7.78
2022-10-09T06:19:40.974Z,7.77
2022-10-09T06:20:56.026Z,7.78
2022-10-09T06:21:57.685Z,7.80
2022-10-09T06:22:59.303Z,7.81
2022-10-09T06:24:03.636Z,7.82
2022-10-09T06:25:05.749Z,7.81
2022-10-09T06:26:10.571Z,7.82
2022-10-09T06:27:13.754Z,7.82
2022-10-09T06:28:15.447Z,7.82
2022-10-09T06:29:17.156Z,7.82
2022-10-09T06:30:18.829Z,7.82
2022-10-09T06:31:23.459Z,7.81
2022-10-09T06:32:25.151Z,7.81
2022-10-09T06:33:30.091Z,7.82
2022-10-09T06:34:31.768Z,7.83
2022-10-09T06:35:36.324Z,7.84
2022-10-09T06:36:38.083Z,7.84
2022-10-09T06:37:39.713Z,7.84
2022-10-09T06:38:42.353Z,7.84
2022-10-09T06:39:44.052Z,7.83
2022-10-09T06:40:45.684Z,7.85
2022-10-09T06:41:47.308Z,7.87
2022-10-09T06:43:00.201Z,7.88
2022-10-09T06:44:07.720Z,7.89
2022-10-09T06:45:09.653Z,7.88
2022-10-09T06:46:12.735Z,7.86
2022-10-09T06:47:14.469Z,7.85
2022-10-09T06:48:16.083Z,7.84
2022-10-09T06:49:17.695Z,7.86
2022-10-09T06:50:19.342Z,7.88
2022-10-09T06:51:23.298Z,7.89
2022-10-09T06:52:25.045Z,7.91
2022-10-09T06:53:26.800Z,7.92
2022-10-09T06:54:28.480Z,7.97
2022-10-09T06:55:30.581Z,7.96
2022-10-09T06:56:32.359Z,7.95
2022-10-09T06:57:34.127Z,7.94
2022-10-09T06:58:36.779Z,7.95
2022-10-09T06:59:38.436Z,7.94
2022-10-09T07:00:40.113Z,7.94
2022-10-09T07:01:41.982Z,7.95
2022-10-09T07:02:44.375Z,7.96
2022-10-09T07:03:48.787Z,7.97
2022-10-09T07:04:50.430Z,7.97
2022-10-09T07:05:52.358Z,7.98
2022-10-09T07:06:53.965Z,7.99
2022-10-09T07:07:55.587Z,8.01
2022-10-09T07:09:01.761Z,8.01
2022-10-09T07:10:03.932Z,8.02
2022-10-09T07:11:11.950Z,8.03
2022-10-09T07:12:13.681Z,8.04
2022-10-09T07:13:15.371Z,8.05
2022-10-09T07:14:17.375Z,8.05
2022-10-09T07:15:19.105Z,8.06
2022-10-09T07:16:23.949Z,8.08
2022-10-09T07:17:26.778Z,8.12
2022-10-09T07:18:28.555Z,8.13
2022-10-09T07:19:30.176Z,8.10
2022-10-09T07:20:32.010Z,8.07
2022-10-09T07:21:38.098Z,8.06
2022-10-09T07:22:39.963Z,8.05
2022-10-09T07:23:42.310Z,8.04
2022-10-09T07:24:44.029Z,8.04
2022-10-09T07:25:45.657Z,8.05
2022-10-09T07:26:47.833Z,8.06
2022-10-09T07:27:49.576Z,8.10
2022-10-09T07:28:52.135Z,8.15
2022-10-09T07:29:53.755Z,8.21
2022-10-09T07:30:56.686Z,8.25
2022-10-09T07:31:58.630Z,8.31
2022-10-09T07:33:00.304Z,8.35
2022-10-09T07:34:03.127Z,8.32
2022-10-09T07:35:05.901Z,8.29
2022-10-09T07:36:09.433Z,8.25
2022-10-09T07:37:11.042Z,8.21
2022-10-09T07:38:12.656Z,8.19
2022-10-09T07:39:15.021Z,8.17
2022-10-09T07:40:16.654Z,8.17
2022-10-09T07:41:18.718Z,8.19
2022-10-09T07:42:20.567Z,8.21
2022-10-09T07:43:22.507Z,8.22
2022-10-09T07:44:24.218Z,8.22
2022-10-09T07:45:26.205Z,8.21
2022-10-09T07:46:33.239Z,8.20
2022-10-09T07:47:35.779Z,8.18
2022-10-09T07:48:37.792Z,8.18
2022-10-09T07:49:39.426Z,8.18
2022-10-09T07:50:41.123Z,8.18
2022-10-09T07:51:42.794Z,8.18
2022-10-09T07:52:44.398Z,8.17
2022-10-09T07:53:47.303Z,8.18
2022-10-09T07:54:48.965Z,8.18
2022-10-09T07:55:50.680Z,8.20
2022-10-09T07:56:52.270Z,8.20
2022-10-09T07:57:53.879Z,8.19
2022-10-09T07:59:02.092Z,8.20
2022-10-09T08:00:04.524Z,8.24
2022-10-09T08:01:18.878Z,8.26
2022-10-09T08:02:21.724Z,8.25
2022-10-09T08:03:23.594Z,8.26
2022-10-09T08:04:25.382Z,8.26
2022-10-09T08:05:26.987Z,8.26
2022-10-09T08:06:29.821Z,8.26
2022-10-09T08:07:34.881Z,8.26
2022-10-09T08:08:36.864Z,8.28
2022-10-09T08:09:39.757Z,8.29
2022-10-09T08:10:41.370Z,8.30
2022-10-09T08:11:43.060Z,8.30
2022-10-09T08:12:44.680Z,8.29
2022-10-09T08:13:49.196Z,8.28
2022-10-09T08:14:51.146Z,8.29
2022-10-09T08:15:52.829Z,8.32
2022-10-09T08:16:54.541Z,8.36
2022-10-09T08:17:56.163Z,8.39
2022-10-09T08:18:59.947Z,8.41
2022-10-09T08:20:01.604Z,8.43
2022-10-09T08:21:07.278Z,8.42
2022-10-09T08:22:08.975Z,8.42
2022-10-09T08:23:10.684Z,8.43
2022-10-09T08:24:12.907Z,8.43
2022-10-09T08:25:14.625Z,8.42
2022-10-09T08:26:19.306Z,8.39
2022-10-09T08:27:20.922Z,8.38
2022-10-09T08:28:22.793Z,8.40
2022-10-09T08:29:24.429Z,8.42
2022-10-09T08:30:26.614Z,8.45
2022-10-09T08:31:29.371Z,8.46
2022-10-09T08:32:31.124Z,8.47
2022-10-09T08:33:32.838Z,8.47
2022-10-09T08:34:34.459Z,8.47
2022-10-09T08:35:36.110Z,8.46
2022-10-09T08:36:37.971Z,8.45
2022-10-09T08:37:39.935Z,8.45
2022-10-09T08:38:49.133Z,8.50
2022-10-09T08:39:50.803Z,8.55
2022-10-09T08:41:06.219Z,8.61
2022-10-09T08:42:27.151Z,8.65
2022-10-09T08:43:34.616Z,8.69
2022-10-09T08:44:46.744Z,8.74
2022-10-09T08:45:51.505Z,8.80
2022-10-09T08:47:03.867Z,8.86
2022-10-09T08:48:14.379Z,8.91
2022-10-09T08:49:37.502Z,8.95
2022-10-09T08:50:47.482Z,8.96
2022-10-09T08:51:50.091Z,8.97
2022-10-09T08:53:10.173Z,9.01
2022-10-09T08:54:29.622Z,9.06
2022-10-09T08:55:45.504Z,9.11
2022-10-09T08:56:49.678Z,9.15
2022-10-09T08:57:55.199Z,9.15
2022-10-09T08:58:57.141Z,9.17
2022-10-09T08:59:58.747Z,9.25
2022-10-09T09:01:27.944Z,9.31
2022-10-09T09:02:42.186Z,9.40
2022-10-09T09:03:52.966Z,9.48
2022-10-09T09:05:18.238Z,9.56
2022-10-09T09:06:39.886Z,9.65
2022-10-09T09:07:58.974Z,9.72
2022-10-09T09:09:30.433Z,9.79
2022-10-09T09:10:40.606Z,9.91
2022-10-09T09:11:42.121Z,10.06
2022-10-09T09:12:59.864Z,10.13
2022-10-09T09:14:28.482Z,10.12
2022-10-09T09:15:51.963Z,10.08
2022-10-09T09:17:12.508Z,10.02
2022-10-09T09:18:41.980Z,10.02
2022-10-09T09:20:16.634Z,10.03
2022-10-09T09:21:36.317Z,10.03
2022-10-09T09:22:47.597Z,10.00
2022-10-09T09:23:49.431Z,9.95
2022-10-09T09:24:59.089Z,9.94
2022-10-09T09:26:02.139Z,9.96
2022-10-09T09:27:13.754Z,9.98
2022-10-09T09:28:27.998Z,9.99
2022-10-09T09:29:42.563Z,9.98
2022-10-09T09:30:55.754Z,10.01
2022-10-09T09:32:01.088Z,10.00
2022-10-09T09:33:11.570Z,9.97
2022-10-09T09:34:22.343Z,9.97
2022-10-09T09:35:36.743Z,10.01
2022-10-09T09:36:52.165Z,10.07
2022-10-09T09:37:54.131Z,10.09
2022-10-09T09:39:49.900Z,10.07
2022-10-09T09:40:37.702Z,9.99
2022-10-09T09:41:42.408Z,9.91
2022-10-09T09:42:44.323Z,9.91
2022-10-09T09:43:46.081Z,9.93
2022-10-09T09:45:05.103Z,9.96
2022-10-09T09:46:16.248Z,9.98
2022-10-09T09:47:36.101Z,9.95
2022-10-09T09:48:41.271Z,9.96
2022-10-09T09:50:01.148Z,9.98
2022-10-09T09:51:26.939Z,10.00
2022-10-09T09:52:34.646Z,9.99
2022-10-09T09:53:41.229Z,10.02
2022-10-09T09:54:48.688Z,10.06
2022-10-09T09:55:54.458Z,10.01
2022-10-09T09:57:12.898Z,10.01
2022-10-09T09:58:17.905Z,10.01
2022-10-09T09:59:40.988Z,10.00
2022-10-09T10:00:57.337Z,9.99
2022-10-09T10:02:25.211Z,10.03
2022-10-09T10:03:27.944Z,10.05
2022-10-09T10:04:29.950Z,10.09
2022-10-09T10:05:37.506Z,10.14
2022-10-09T10:06:43.966Z,10.19
2022-10-09T10:07:49.866Z,10.23
2022-10-09T10:09:04.818Z,10.26
2022-10-09T10:10:22.473Z,10.27
2022-10-09T10:11:28.649Z,10.26
2022-10-09T10:12:30.391Z,10.23
2022-10-09T10:13:48.983Z,10.23
2022-10-09T10:14:50.869Z,10.25
2022-10-09T10:15:57.874Z,10.26
2022-10-09T10:17:02.127Z,10.25
2022-10-09T10:18:16.015Z,10.26
2022-10-09T10:19:28.789Z,10.30
2022-10-09T10:20:42.142Z,10.36
2022-10-09T10:21:55.512Z,10.42
2022-10-09T10:22:59.313Z,10.46
2022-10-09T10:24:06.554Z,10.48
2022-10-09T10:25:18.168Z,10.51
2022-10-09T10:26:22.736Z,10.55
2022-10-09T10:27:32.040Z,10.60
2022-10-09T10:29:04.621Z,10.74
2022-10-09T10:30:13.931Z,10.97
2022-10-09T10:31:40.236Z,11.18
2022-10-09T10:33:03.023Z,11.32
2022-10-09T10:34:17.091Z,11.43
2022-10-09T10:35:39.568Z,11.49
2022-10-09T10:36:41.899Z,11.53
2022-10-09T10:37:59.715Z,11.52
2022-10-09T10:39:17.456Z,11.54
2022-10-09T10:40:31.787Z,11.55
2022-10-09T10:41:45.150Z,11.54
2022-10-09T10:43:11.356Z,11.52
2022-10-09T10:44:23.289Z,11.46
2022-10-09T10:45:43.946Z,11.43
2022-10-09T10:47:00.050Z,11.51
2022-10-09T10:48:05.127Z,11.52
2022-10-09T10:49:12.000Z,11.50
2022-10-09T10:50:15.788Z,11.45
2022-10-09T10:51:23.147Z,11.38
2022-10-09T10:52:48.122Z,11.31
2022-10-09T10:54:04.690Z,11.40
2022-10-09T10:55:29.277Z,11.83
2022-10-09T10:56:37.726Z,12.23
2022-10-09T10:58:09.841Z,12.41
2022-10-09T10:59:30.182Z,12.61
2022-10-09T11:00:39.764Z,12.88
2022-10-09T11:02:20.933Z,13.20
2022-10-09T11:03:28.313Z,13.63
2022-10-09T11:04:53.881Z,13.74
2022-10-09T11:06:12.546Z,13.77
2022-10-09T11:07:40.054Z,13.76
2022-10-09T11:09:05.843Z,13.85
2022-10-09T11:10:22.430Z,13.99
2022-10-09T11:11:42.903Z,14.16
2022-10-09T11:13:21.681Z,14.34
2022-10-09T11:14:44.901Z,14.61
2022-10-09T11:15:57.719Z,14.96
2022-10-09T11:17:36.445Z,15.02
2022-10-09T11:18:56.170Z,14.88
2022-10-09T11:20:20.815Z,14.89
2022-10-09T11:21:43.265Z,14.52
2022-10-09T11:23:05.702Z,14.07
2022-10-09T11:24:39.792Z,13.61
2022-10-09T11:25:56.191Z,13.12
2022-10-09T11:27:24.544Z,12.79
2022-10-09T11:28:39.197Z,12.41
2022-10-09T11:29:51.999Z,12.28
2022-10-09T11:31:08.415Z,12.48
2022-10-09T11:32:21.957Z,12.56
2022-10-09T11:33:42.172Z,12.62
2022-10-09T11:34:52.913Z,12.65
2022-10-09T11:36:20.409Z,12.93
2022-10-09T11:37:30.270Z,13.09
2022-10-09T11:38:39.390Z,13.29
2022-10-09T11:39:42.212Z,13.23
2022-10-09T11:40:43.937Z,13.20
2022-10-09T11:41:49.742Z,13.07
2022-10-09T11:43:09.881Z,12.93
2022-10-09T11:44:22.969Z,13.18
2022-10-09T11:45:42.885Z,13.64
2022-10-09T11:47:08.921Z,14.24
2022-10-09T11:48:26.671Z,14.75
2022-10-09T11:49:55.772Z,15.02
2022-10-09T11:51:00.107Z,14.99
2022-10-09T11:52:35.765Z,14.77
2022-10-09T11:53:40.271Z,14.33
2022-10-09T11:54:42.273Z,14.02
2022-10-09T11:55:43.982Z,13.73
2022-10-09T11:57:06.117Z,13.45
2022-10-09T11:58:22.786Z,13.17
2022-10-09T11:59:30.265Z,13.01
2022-10-09T12:00:36.004Z,13.15
2022-10-09T12:01:41.224Z,13.18
2022-10-09T12:02:44.309Z,13.12
2022-10-09T12:03:46.150Z,13.01
2022-10-09T12:04:55.840Z,13.02
2022-10-09T12:06:14.574Z,12.90
2022-10-09T12:07:29.549Z,12.78
2022-10-09T12:08:31.725Z,12.66
2022-10-09T12:09:41.891Z,12.61
2022-10-09T12:11:00.664Z,12.60
2022-10-09T12:12:07.571Z,12.58
2022-10-09T12:13:30.896Z,12.49
2022-10-09T12:14:34.275Z,12.35
2022-10-09T12:15:53.266Z,12.49
2022-10-09T12:16:56.610Z,12.94
2022-10-09T12:17:58.311Z,13.43
2022-10-09T12:19:04.342Z,13.95
2022-10-09T12:20:22.968Z,14.47
2022-10-09T12:21:30.751Z,15.02
2022-10-09T12:22:37.399Z,15.45
2022-10-09T12:23:40.363Z,15.81
2022-10-09T12:24:49.178Z,16.19
2022-10-09T12:25:53.680Z,16.58
2022-10-09T12:27:03.057Z,16.97
2022-10-09T12:28:06.706Z,17.31
2022-10-09T12:29:25.264Z,17.54
2022-10-09T12:30:42.677Z,17.81
2022-10-09T12:31:50.443Z,17.89
2022-10-09T12:33:27.585Z,18.04
2022-10-09T12:34:43.548Z,18.31
2022-10-09T12:35:47.855Z,18.37
2022-10-09T12:36:49.592Z,18.35
2022-10-09T12:37:51.611Z,18.30
2022-10-09T12:38:53.358Z,18.32
2022-10-09T12:40:06.466Z,18.45
2022-10-09T12:41:24.929Z,18.53
2022-10-09T12:42:27.229Z,18.51
2022-10-09T12:43:32.398Z,18.39
2022-10-09T12:44:39.690Z,18.25
2022-10-09T12:45:48.229Z,18.20
2022-10-09T12:46:51.319Z,18.15
2022-10-09T12:47:54.551Z,18.08
2022-10-09T12:48:57.998Z,17.98
2022-10-09T12:50:24.171Z,17.86
2022-10-09T12:51:29.551Z,17.66
2022-10-09T12:52:32.308Z,17.40
2022-10-09T12:53:34.071Z,16.90
2022-10-09T12:54:43.315Z,16.32
2022-10-09T12:55:55.957Z,15.73
2022-10-09T12:56:59.811Z,15.34
2022-10-09T12:58:07.866Z,15.36
2022-10-09T12:59:13.670Z,15.52
2022-10-09T13:00:15.827Z,15.74
2022-10-09T13:01:19.317Z,16.02
2022-10-09T13:02:22.154Z,16.34
2022-10-09T13:03:36.188Z,16.56
2022-10-09T13:04:38.233Z,16.75
2022-10-09T13:05:42.530Z,16.84
2022-10-09T13:06:48.007Z,16.88
2022-10-09T13:07:52.520Z,16.89
2022-10-09T13:08:57.945Z,16.84
2022-10-09T13:10:04.662Z,16.83
2022-10-09T13:11:24.233Z,16.86
2022-10-09T13:12:28.925Z,16.83
2022-10-09T13:13:30.676Z,16.81
2022-10-09T13:14:45.213Z,16.59
2022-10-09T13:15:59.634Z,16.13
2022-10-09T13:17:02.448Z,15.72
2022-10-09T13:18:22.503Z,15.70
2022-10-09T13:19:31.701Z,15.86
2022-10-09T13:20:33.414Z,15.97
2022-10-09T13:21:35.619Z,16.07
2022-10-09T13:22:37.745Z,16.21
2022-10-09T13:23:39.412Z,16.37
2022-10-09T13:24:42.222Z,16.35
2022-10-09T13:25:48.704Z,16.37
2022-10-09T13:26:50.349Z,16.40
2022-10-09T13:27:52.552Z,16.39
2022-10-09T13:28:58.516Z,16.38
2022-10-09T13:30:01.470Z,16.41
2022-10-09T13:31:08.423Z,16.52
2022-10-09T13:32:13.626Z,16.75
2022-10-09T13:33:16.970Z,17.08
2022-10-09T13:34:19.321Z,17.40
2022-10-09T13:35:21.410Z,17.55
2022-10-09T13:36:23.054Z,17.64
2022-10-09T13:37:26.887Z,17.77
2022-10-09T13:38:32.663Z,17.77
2022-10-09T13:39:36.346Z,17.76
2022-10-09T13:40:39.273Z,17.77
2022-10-09T13:41:43.470Z,17.69
2022-10-09T13:43:00.888Z,17.20
2022-10-09T13:44:02.610Z,16.72
2022-10-09T13:45:05.366Z,16.38
2022-10-09T13:46:07.263Z,15.87
2022-10-09T13:47:09.057Z,15.40
2022-10-09T13:48:10.718Z,14.97
2022-10-09T13:49:12.374Z,14.61
2022-10-09T13:50:14.385Z,14.52
2022-10-09T13:51:16.034Z,14.74
2022-10-09T13:52:17.705Z,15.03
2022-10-09T13:53:19.366Z,15.38
2022-10-09T13:54:21.285Z,15.73
2022-10-09T13:55:22.898Z,15.96
2022-10-09T13:56:24.668Z,16.13
2022-10-09T13:57:26.284Z,16.28
2022-10-09T13:58:28.121Z,16.40
2022-10-09T13:59:32.007Z,16.51
2022-10-09T14:00:34.237Z,16.60
2022-10-09T14:01:36.115Z,16.63
2022-10-09T14:02:37.759Z,16.63
2022-10-09T14:03:40.402Z,16.61
2022-10-09T14:04:42.109Z,16.57
2022-10-09T14:05:44.802Z,16.54
2022-10-09T14:06:46.412Z,16.40
2022-10-09T14:07:48.681Z,16.43
2022-10-09T14:08:50.539Z,16.53
2022-10-09T14:09:52.222Z,16.67
2022-10-09T14:10:53.886Z,16.87
2022-10-09T14:11:55.505Z,17.07
2022-10-09T14:12:57.420Z,17.13
2022-10-09T14:13:59.904Z,17.12
2022-10-09T14:15:01.810Z,17.12
2022-10-09T14:16:05.847Z,17.16
2022-10-09T14:17:07.450Z,17.22
2022-10-09T14:18:09.224Z,17.31
2022-10-09T14:19:11.697Z,17.33
2022-10-09T14:20:13.778Z,17.28
2022-10-09T14:21:16.028Z,17.25
2022-10-09T14:22:17.718Z,17.20
2022-10-09T14:23:19.370Z,17.23
2022-10-09T14:24:21.022Z,17.38
2022-10-09T14:25:22.693Z,17.46
2022-10-09T14:26:26.040Z,17.23
2022-10-09T14:27:27.748Z,16.96
2022-10-09T14:28:29.501Z,16.86
2022-10-09T14:29:31.361Z,16.76
2022-10-09T14:30:33.018Z,16.67
2022-10-09T14:31:34.671Z,16.59
2022-10-09T14:32:36.305Z,16.54
2022-10-09T14:33:37.919Z,16.46
2022-10-09T14:34:39.626Z,16.38
2022-10-09T14:35:41.284Z,16.22